CaraVOS Liberty — V7AH7 — position and weather

sailwx.info

Track history (hours):
 
Tides and Currents Weather Stations Pressure Air Temp Water Temp Dewpoint Dewpoint Depression Visibility Wind Speed Wind Dir Waves Ship Positions

CaraVOS Liberty

Last reported at 2018-May-25 12:12 UTC. Time now 2018-Jun-25 10:01 UTC.
Position N 01°22' E 104°34'.
Warning: this ship's position is 30 days out of date.

Length 200 m; draft 6.8 m.

Type: Cargo ship. MMSI: 538004998.

Date/timePositionNaut miles runAvg speedWind from/ knotsBaromVisibWave heightAir tempDewpointWater temp
2018-May-25 12:12N 01°22' E 104°34'613.6
2018-May-25 11:48N 01°24' E 104°29'612.6
2018-May-25 11:21N 01°21' E 104°24'512.9
2018-May-25 11:00N 01°18' E 104°21'612.4
2018-May-25 10:30N 01°16' E 104°15'612.2
2018-May-25 09:59N 01°16' E 104°08'611.8
2018-May-25 09:30N 01°15' E 104°03'510.8
2018-May-25 09:00N 01°16' E 103°57'2 3.3
2018-May-25 08:30N 01°16' E 103°56'0 0.1
2018-May-25 08:00N 01°16' E 103°56'0 0.0
2018-May-25 07:30N 01°16' E 103°56'0 0.0
2018-May-25 06:59N 01°16' E 103°56'0 0.0
2018-May-25 06:30N 01°16' E 103°56'0 0.1
2018-May-25 06:00N 01°16' E 103°56'0 0.1
2018-May-25 05:30N 01°16' E 103°56'0 0.1
2018-May-25 04:58N 01°16' E 103°56'0 0.0
2018-May-25 04:30N 01°16' E 103°56'0 0.0
2018-May-25 03:59N 01°16' E 103°56'0 0.1
2018-May-25 03:30N 01°16' E 103°56'0 0.1
2018-May-25 03:00N 01°16' E 103°56'0 0.0
2018-May-25 02:30N 01°16' E 103°56'0 0.0
2018-May-25 02:00N 01°16' E 103°56'0 0.1
2018-May-25 01:30N 01°16' E 103°56'1 1.7
2018-May-25 01:00N 01°16' E 103°57'2 3.2
2018-May-25 00:30N 01°16' E 103°58'2 3.3
2018-May-24 23:59N 01°15' E 103°60'511.1
2018-May-24 23:30N 01°12' E 103°55'510.7
2018-May-24 23:00N 01°10' E 103°50'3 6.3
2018-May-24 22:30N 01°09' E 103°47'4 7.8
2018-May-24 22:00N 01°06' E 103°44'4 8.2
2018-May-24 21:30N 01°04' E 103°41'611.2
2018-May-24 20:59N 01°05' E 103°35'611.8
2018-May-24 20:30N 01°08' E 103°30'611.9
2018-May-24 20:00N 01°11' E 103°25'611.8
2018-May-24 19:28N 01°15' E 103°20'511.7
2018-May-24 19:00N 01°19' E 103°16'911.5
2018-May-24 18:14N 01°24' E 103°09'611.9
2018-May-24 17:45N 01°27' E 103°04'412.1
2018-May-24 17:27N 01°29' E 103°01'  
Track history (hours):
 
Tides and Currents Weather Stations Pressure Air Temp Water Temp Dewpoint Dewpoint Depression Visibility Wind Speed Wind Dir Waves Ship Positions

CaraVOS Liberty

Last reported at 2018-May-25 12:12 UTC. Time now 2018-Jun-25 10:01 UTC.
Position N 01°22' E 104°34'.
Warning: this ship's position is 30 days out of date.

Length 200 m; draft 6.8 m.

Type: Cargo ship. MMSI: 538004998.

Date/timePositionNaut miles runAvg speedWind from/ knotsBaromVisibWave heightAir tempDewpointWater temp
2018-May-25 12:12N 01°22' E 104°34'613.6
2018-May-25 11:48N 01°24' E 104°29'612.6
2018-May-25 11:21N 01°21' E 104°24'512.9
2018-May-25 11:00N 01°18' E 104°21'612.4
2018-May-25 10:30N 01°16' E 104°15'612.2
2018-May-25 09:59N 01°16' E 104°08'611.8
2018-May-25 09:30N 01°15' E 104°03'510.8
2018-May-25 09:00N 01°16' E 103°57'2 3.3
2018-May-25 08:30N 01°16' E 103°56'0 0.1
2018-May-25 08:00N 01°16' E 103°56'0 0.0
2018-May-25 07:30N 01°16' E 103°56'0 0.0
2018-May-25 06:59N 01°16' E 103°56'0 0.0
2018-May-25 06:30N 01°16' E 103°56'0 0.1
2018-May-25 06:00N 01°16' E 103°56'0 0.1
2018-May-25 05:30N 01°16' E 103°56'0 0.1
2018-May-25 04:58N 01°16' E 103°56'0 0.0
2018-May-25 04:30N 01°16' E 103°56'0 0.0
2018-May-25 03:59N 01°16' E 103°56'0 0.1
2018-May-25 03:30N 01°16' E 103°56'0 0.1
2018-May-25 03:00N 01°16' E 103°56'0 0.0
2018-May-25 02:30N 01°16' E 103°56'0 0.0
2018-May-25 02:00N 01°16' E 103°56'0 0.1
2018-May-25 01:30N 01°16' E 103°56'1 1.7
2018-May-25 01:00N 01°16' E 103°57'2 3.2
2018-May-25 00:30N 01°16' E 103°58'2 3.3
2018-May-24 23:59N 01°15' E 103°60'511.1
2018-May-24 23:30N 01°12' E 103°55'510.7
2018-May-24 23:00N 01°10' E 103°50'3 6.3
2018-May-24 22:30N 01°09' E 103°47'4 7.8
2018-May-24 22:00N 01°06' E 103°44'4 8.2
2018-May-24 21:30N 01°04' E 103°41'611.2
2018-May-24 20:59N 01°05' E 103°35'611.8
2018-May-24 20:30N 01°08' E 103°30'611.9
2018-May-24 20:00N 01°11' E 103°25'611.8
2018-May-24 19:28N 01°15' E 103°20'511.7
2018-May-24 19:00N 01°19' E 103°16'911.5
2018-May-24 18:14N 01°24' E 103°09'611.9
2018-May-24 17:45N 01°27' E 103°04'412.1
2018-May-24 17:27N 01°29' E 103°01'  

Dump ship's entire track history